sensor_id;sensor_type;location;lat;lon;timestamp;P1;durP1;ratioP1;P2;durP2;ratioP2
57635;SDS011;43465;50.728;4.160;2023-02-22T00:00:35;127.90;;;25.13;;
57635;SDS011;43465;50.728;4.160;2023-02-22T00:03:11;90.78;;;22.65;;
57635;SDS011;43465;50.728;4.160;2023-02-22T00:05:37;63.95;;;22.35;;
57635;SDS011;43465;50.728;4.160;2023-02-22T00:08:03;101.82;;;24.83;;
57635;SDS011;43465;50.728;4.160;2023-02-22T00:10:33;36.97;;;22.95;;
57635;SDS011;43465;50.728;4.160;2023-02-22T00:13:03;37.22;;;21.40;;
57635;SDS011;43465;50.728;4.160;2023-02-22T00:15:31;36.47;;;21.05;;
57635;SDS011;43465;50.728;4.160;2023-02-22T00:17:57;32.33;;;20.40;;
57635;SDS011;43465;50.728;4.160;2023-02-22T00:20:23;32.92;;;19.60;;
57635;SDS011;43465;50.728;4.160;2023-02-22T00:22:49;34.58;;;20.80;;
57635;SDS011;43465;50.728;4.160;2023-02-22T00:25:20;38.75;;;22.40;;
57635;SDS011;43465;50.728;4.160;2023-02-22T00:27:48;38.90;;;22.40;;
57635;SDS011;43465;50.728;4.160;2023-02-22T00:30:20;37.63;;;22.58;;
57635;SDS011;43465;50.728;4.160;2023-02-22T00:32:51;36.92;;;22.35;;
57635;SDS011;43465;50.728;4.160;2023-02-22T00:35:19;39.33;;;23.48;;
57635;SDS011;43465;50.728;4.160;2023-02-22T00:37:47;41.42;;;21.50;;
57635;SDS011;43465;50.728;4.160;2023-02-22T00:42:42;37.65;;;22.45;;
57635;SDS011;43465;50.728;4.160;2023-02-22T00:45:10;34.03;;;21.35;;
57635;SDS011;43465;50.728;4.160;2023-02-22T00:47:36;31.63;;;20.52;;
57635;SDS011;43465;50.728;4.160;2023-02-22T00:50:02;33.35;;;20.88;;
57635;SDS011;43465;50.728;4.160;2023-02-22T00:52:28;40.92;;;19.70;;
57635;SDS011;43465;50.728;4.160;2023-02-22T00:54:54;33.15;;;20.15;;
57635;SDS011;43465;50.728;4.160;2023-02-22T00:57:21;33.08;;;19.80;;
57635;SDS011;43465;50.728;4.160;2023-02-22T00:59:47;46.65;;;19.33;;
57635;SDS011;43465;50.728;4.160;2023-02-22T01:02:12;30.67;;;19.02;;
57635;SDS011;43465;50.728;4.160;2023-02-22T01:04:38;48.30;;;20.05;;
57635;SDS011;43465;50.728;4.160;2023-02-22T01:07:04;79.72;;;20.63;;
57635;SDS011;43465;50.728;4.160;2023-02-22T01:09:30;68.85;;;19.15;;
57635;SDS011;43465;50.728;4.160;2023-02-22T01:11:56;92.47;;;20.13;;
57635;SDS011;43465;50.728;4.160;2023-02-22T01:14:23;132.38;;;19.83;;
57635;SDS011;43465;50.728;4.160;2023-02-22T01:16:50;94.63;;;20.30;;
57635;SDS011;43465;50.728;4.160;2023-02-22T01:19:18;98.28;;;21.75;;
57635;SDS011;43465;50.728;4.160;2023-02-22T01:21:44;254.82;;;27.75;;
57635;SDS011;43465;50.728;4.160;2023-02-22T01:24:11;235.23;;;25.63;;
57635;SDS011;43465;50.728;4.160;2023-02-22T01:26:40;173.80;;;23.27;;
57635;SDS011;43465;50.728;4.160;2023-02-22T01:29:06;59.40;;;22.60;;
57635;SDS011;43465;50.728;4.160;2023-02-22T01:31:33;78.97;;;25.63;;
57635;SDS011;43465;50.728;4.160;2023-02-22T01:33:58;121.15;;;22.45;;
57635;SDS011;43465;50.728;4.160;2023-02-22T01:36:24;60.60;;;17.83;;
57635;SDS011;43465;50.728;4.160;2023-02-22T01:38:49;81.45;;;17.73;;
57635;SDS011;43465;50.728;4.160;2023-02-22T01:41:15;71.63;;;16.88;;
57635;SDS011;43465;50.728;4.160;2023-02-22T01:43:42;57.35;;;15.73;;
57635;SDS011;43465;50.728;4.160;2023-02-22T01:46:21;102.07;;;19.45;;
57635;SDS011;43465;50.728;4.160;2023-02-22T01:48:49;57.65;;;23.02;;
57635;SDS011;43465;50.728;4.160;2023-02-22T01:51:23;100.00;;;22.05;;
57635;SDS011;43465;50.728;4.160;2023-02-22T01:54:03;79.32;;;19.63;;
57635;SDS011;43465;50.728;4.160;2023-02-22T01:56:32;47.88;;;20.38;;
57635;SDS011;43465;50.728;4.160;2023-02-22T01:59:03;32.78;;;18.65;;
57635;SDS011;43465;50.728;4.160;2023-02-22T02:01:32;27.80;;;17.08;;
57635;SDS011;43465;50.728;4.160;2023-02-22T02:04:01;27.55;;;16.80;;
57635;SDS011;43465;50.728;4.160;2023-02-22T02:06:31;26.98;;;18.92;;
57635;SDS011;43465;50.728;4.160;2023-02-22T02:09:01;25.95;;;18.08;;
57635;SDS011;43465;50.728;4.160;2023-02-22T02:11:27;33.17;;;17.77;;
57635;SDS011;43465;50.728;4.160;2023-02-22T02:13:55;29.85;;;19.75;;
57635;SDS011;43465;50.728;4.160;2023-02-22T02:16:22;30.52;;;20.55;;
57635;SDS011;43465;50.728;4.160;2023-02-22T02:18:50;26.88;;;19.65;;
57635;SDS011;43465;50.728;4.160;2023-02-22T02:27:10;27.30;;;18.33;;
57635;SDS011;43465;50.728;4.160;2023-02-22T02:37:37;26.48;;;18.00;;
57635;SDS011;43465;50.728;4.160;2023-02-22T02:40:08;27.90;;;18.92;;
57635;SDS011;43465;50.728;4.160;2023-02-22T02:42:43;29.83;;;19.83;;
57635;SDS011;43465;50.728;4.160;2023-02-22T02:45:15;25.80;;;18.38;;
57635;SDS011;43465;50.728;4.160;2023-02-22T02:47:51;29.63;;;18.13;;
57635;SDS011;43465;50.728;4.160;2023-02-22T02:50:24;25.23;;;18.05;;
57635;SDS011;43465;50.728;4.160;2023-02-22T02:53:10;24.92;;;17.77;;
57635;SDS011;43465;50.728;4.160;2023-02-22T02:55:41;25.50;;;17.45;;
57635;SDS011;43465;50.728;4.160;2023-02-22T02:58:07;25.17;;;16.95;;
57635;SDS011;43465;50.728;4.160;2023-02-22T03:00:34;25.58;;;17.27;;
57635;SDS011;43465;50.728;4.160;2023-02-22T03:19:37;29.90;;;18.10;;
57635;SDS011;43465;50.728;4.160;2023-02-22T03:30:09;25.20;;;17.17;;
57635;SDS011;43465;50.728;4.160;2023-02-22T03:32:59;22.45;;;16.33;;
57635;SDS011;43465;50.728;4.160;2023-02-22T03:35:34;25.15;;;16.55;;
57635;SDS011;43465;50.728;4.160;2023-02-22T03:38:04;24.65;;;16.58;;
57635;SDS011;43465;50.728;4.160;2023-02-22T03:40:35;22.52;;;16.85;;
57635;SDS011;43465;50.728;4.160;2023-02-22T03:43:08;23.00;;;16.38;;
57635;SDS011;43465;50.728;4.160;2023-02-22T03:45:40;22.00;;;16.55;;
57635;SDS011;43465;50.728;4.160;2023-02-22T03:48:15;22.40;;;16.23;;
57635;SDS011;43465;50.728;4.160;2023-02-22T03:50:43;22.00;;;16.30;;
57635;SDS011;43465;50.728;4.160;2023-02-22T03:53:09;26.00;;;18.85;;
57635;SDS011;43465;50.728;4.160;2023-02-22T03:55:35;24.38;;;17.80;;
57635;SDS011;43465;50.728;4.160;2023-02-22T03:58:02;23.23;;;16.90;;
57635;SDS011;43465;50.728;4.160;2023-02-22T04:00:33;22.98;;;16.52;;
57635;SDS011;43465;50.728;4.160;2023-02-22T04:03:00;22.48;;;16.23;;
57635;SDS011;43465;50.728;4.160;2023-02-22T04:05:26;21.52;;;15.40;;
57635;SDS011;43465;50.728;4.160;2023-02-22T04:07:52;20.85;;;14.95;;
57635;SDS011;43465;50.728;4.160;2023-02-22T04:10:18;21.60;;;15.60;;
57635;SDS011;43465;50.728;4.160;2023-02-22T04:12:44;23.70;;;15.40;;
57635;SDS011;43465;50.728;4.160;2023-02-22T04:15:12;20.33;;;14.60;;
57635;SDS011;43465;50.728;4.160;2023-02-22T04:17:45;24.52;;;15.60;;
57635;SDS011;43465;50.728;4.160;2023-02-22T04:20:11;21.92;;;15.27;;
57635;SDS011;43465;50.728;4.160;2023-02-22T04:22:37;21.75;;;15.68;;
57635;SDS011;43465;50.728;4.160;2023-02-22T04:25:04;21.15;;;14.57;;
57635;SDS011;43465;50.728;4.160;2023-02-22T04:27:30;19.63;;;14.38;;
57635;SDS011;43465;50.728;4.160;2023-02-22T04:29:56;22.63;;;15.82;;
57635;SDS011;43465;50.728;4.160;2023-02-22T04:32:21;21.13;;;14.65;;
57635;SDS011;43465;50.728;4.160;2023-02-22T04:34:47;19.75;;;14.48;;
57635;SDS011;43465;50.728;4.160;2023-02-22T04:37:12;20.90;;;15.88;;
57635;SDS011;43465;50.728;4.160;2023-02-22T04:39:39;19.83;;;15.18;;
57635;SDS011;43465;50.728;4.160;2023-02-22T04:42:05;20.52;;;15.30;;
57635;SDS011;43465;50.728;4.160;2023-02-22T04:44:31;18.17;;;14.35;;
57635;SDS011;43465;50.728;4.160;2023-02-22T04:46:57;19.77;;;15.88;;
57635;SDS011;43465;50.728;4.160;2023-02-22T04:49:22;21.08;;;15.43;;
57635;SDS011;43465;50.728;4.160;2023-02-22T04:51:48;21.40;;;15.38;;
57635;SDS011;43465;50.728;4.160;2023-02-22T04:54:14;43.53;;;27.63;;
57635;SDS011;43465;50.728;4.160;2023-02-22T04:56:41;54.10;;;32.88;;
57635;SDS011;43465;50.728;4.160;2023-02-22T04:59:08;57.33;;;34.80;;
57635;SDS011;43465;50.728;4.160;2023-02-22T05:01:34;51.97;;;32.30;;
57635;SDS011;43465;50.728;4.160;2023-02-22T05:04:01;46.30;;;32.13;;
57635;SDS011;43465;50.728;4.160;2023-02-22T05:06:27;32.47;;;24.90;;
57635;SDS011;43465;50.728;4.160;2023-02-22T05:08:53;24.77;;;18.23;;
57635;SDS011;43465;50.728;4.160;2023-02-22T05:11:19;24.15;;;17.23;;
57635;SDS011;43465;50.728;4.160;2023-02-22T05:13:45;22.55;;;16.75;;
57635;SDS011;43465;50.728;4.160;2023-02-22T05:16:10;24.33;;;16.88;;
57635;SDS011;43465;50.728;4.160;2023-02-22T05:18:36;23.33;;;15.50;;
57635;SDS011;43465;50.728;4.160;2023-02-22T05:21:02;23.33;;;15.80;;
57635;SDS011;43465;50.728;4.160;2023-02-22T05:23:28;22.60;;;16.48;;
57635;SDS011;43465;50.728;4.160;2023-02-22T05:25:53;22.05;;;16.52;;
57635;SDS011;43465;50.728;4.160;2023-02-22T05:28:19;24.30;;;17.55;;
57635;SDS011;43465;50.728;4.160;2023-02-22T05:30:44;20.80;;;15.68;;
57635;SDS011;43465;50.728;4.160;2023-02-22T05:33:10;23.05;;;15.00;;
57635;SDS011;43465;50.728;4.160;2023-02-22T05:35:36;20.95;;;15.63;;
57635;SDS011;43465;50.728;4.160;2023-02-22T05:38:03;23.15;;;15.95;;
57635;SDS011;43465;50.728;4.160;2023-02-22T05:40:29;22.58;;;16.00;;
57635;SDS011;43465;50.728;4.160;2023-02-22T05:42:55;20.75;;;15.32;;
57635;SDS011;43465;50.728;4.160;2023-02-22T05:45:23;22.40;;;14.95;;
57635;SDS011;43465;50.728;4.160;2023-02-22T05:47:50;20.00;;;14.48;;
57635;SDS011;43465;50.728;4.160;2023-02-22T05:50:16;22.15;;;15.45;;
57635;SDS011;43465;50.728;4.160;2023-02-22T05:52:43;20.15;;;15.07;;
57635;SDS011;43465;50.728;4.160;2023-02-22T05:55:09;22.58;;;15.85;;
57635;SDS011;43465;50.728;4.160;2023-02-22T05:57:37;22.75;;;16.75;;
57635;SDS011;43465;50.728;4.160;2023-02-22T06:00:04;23.08;;;16.67;;
57635;SDS011;43465;50.728;4.160;2023-02-22T06:02:31;21.13;;;15.88;;
57635;SDS011;43465;50.728;4.160;2023-02-22T06:04:57;23.52;;;16.88;;
57635;SDS011;43465;50.728;4.160;2023-02-22T06:07:22;24.17;;;15.30;;
57635;SDS011;43465;50.728;4.160;2023-02-22T06:09:48;22.10;;;16.05;;
57635;SDS011;43465;50.728;4.160;2023-02-22T06:12:14;22.48;;;14.90;;
57635;SDS011;43465;50.728;4.160;2023-02-22T06:14:40;19.83;;;14.88;;
57635;SDS011;43465;50.728;4.160;2023-02-22T06:17:10;24.08;;;15.23;;
57635;SDS011;43465;50.728;4.160;2023-02-22T06:19:36;22.75;;;15.20;;
57635;SDS011;43465;50.728;4.160;2023-02-22T06:22:02;22.27;;;16.13;;
57635;SDS011;43465;50.728;4.160;2023-02-22T06:24:29;22.08;;;15.23;;
57635;SDS011;43465;50.728;4.160;2023-02-22T06:26:55;25.15;;;16.80;;
57635;SDS011;43465;50.728;4.160;2023-02-22T06:29:23;23.63;;;16.10;;
57635;SDS011;43465;50.728;4.160;2023-02-22T06:31:49;23.52;;;16.85;;
57635;SDS011;43465;50.728;4.160;2023-02-22T06:34:15;28.05;;;16.15;;
57635;SDS011;43465;50.728;4.160;2023-02-22T06:36:41;23.27;;;16.98;;
57635;SDS011;43465;50.728;4.160;2023-02-22T06:39:07;24.70;;;17.27;;
57635;SDS011;43465;50.728;4.160;2023-02-22T06:41:38;26.75;;;17.17;;
57635;SDS011;43465;50.728;4.160;2023-02-22T06:44:05;24.30;;;16.77;;
57635;SDS011;43465;50.728;4.160;2023-02-22T06:46:30;27.55;;;17.80;;
57635;SDS011;43465;50.728;4.160;2023-02-22T06:48:56;20.85;;;14.73;;
57635;SDS011;43465;50.728;4.160;2023-02-22T06:51:24;20.75;;;15.13;;
57635;SDS011;43465;50.728;4.160;2023-02-22T06:53:53;21.67;;;14.45;;
57635;SDS011;43465;50.728;4.160;2023-02-22T06:56:19;22.10;;;13.88;;
57635;SDS011;43465;50.728;4.160;2023-02-22T06:58:45;21.17;;;15.77;;
57635;SDS011;43465;50.728;4.160;2023-02-22T07:01:11;21.42;;;14.65;;
57635;SDS011;43465;50.728;4.160;2023-02-22T07:03:37;19.65;;;14.95;;
57635;SDS011;43465;50.728;4.160;2023-02-22T07:06:03;21.75;;;15.30;;
57635;SDS011;43465;50.728;4.160;2023-02-22T07:08:30;24.13;;;17.05;;
57635;SDS011;43465;50.728;4.160;2023-02-22T07:10:56;25.23;;;17.35;;
57635;SDS011;43465;50.728;4.160;2023-02-22T07:13:21;26.75;;;17.67;;
57635;SDS011;43465;50.728;4.160;2023-02-22T07:15:47;27.75;;;17.95;;
57635;SDS011;43465;50.728;4.160;2023-02-22T07:18:13;27.20;;;17.38;;
57635;SDS011;43465;50.728;4.160;2023-02-22T07:20:40;27.05;;;17.98;;
57635;SDS011;43465;50.728;4.160;2023-02-22T07:23:06;31.23;;;18.65;;
57635;SDS011;43465;50.728;4.160;2023-02-22T07:25:32;34.00;;;19.98;;
57635;SDS011;43465;50.728;4.160;2023-02-22T07:27:58;31.05;;;18.67;;
57635;SDS011;43465;50.728;4.160;2023-02-22T07:30:25;27.65;;;18.38;;
57635;SDS011;43465;50.728;4.160;2023-02-22T07:32:55;31.35;;;19.50;;
57635;SDS011;43465;50.728;4.160;2023-02-22T07:35:23;29.23;;;20.30;;
57635;SDS011;43465;50.728;4.160;2023-02-22T07:37:50;30.17;;;19.30;;
57635;SDS011;43465;50.728;4.160;2023-02-22T07:40:16;27.80;;;18.27;;
57635;SDS011;43465;50.728;4.160;2023-02-22T07:42:56;28.80;;;18.05;;
57635;SDS011;43465;50.728;4.160;2023-02-22T07:45:23;29.25;;;17.90;;
57635;SDS011;43465;50.728;4.160;2023-02-22T07:47:53;28.17;;;18.30;;
57635;SDS011;43465;50.728;4.160;2023-02-22T07:50:20;28.52;;;18.17;;
57635;SDS011;43465;50.728;4.160;2023-02-22T07:52:48;24.70;;;17.15;;
57635;SDS011;43465;50.728;4.160;2023-02-22T07:55:16;27.70;;;16.77;;
57635;SDS011;43465;50.728;4.160;2023-02-22T07:57:46;25.02;;;15.35;;
57635;SDS011;43465;50.728;4.160;2023-02-22T08:00:14;24.17;;;15.80;;
57635;SDS011;43465;50.728;4.160;2023-02-22T08:02:45;26.23;;;15.50;;
57635;SDS011;43465;50.728;4.160;2023-02-22T08:05:10;27.70;;;15.80;;
57635;SDS011;43465;50.728;4.160;2023-02-22T08:07:38;25.60;;;14.85;;
57635;SDS011;43465;50.728;4.160;2023-02-22T08:10:04;25.98;;;15.32;;
57635;SDS011;43465;50.728;4.160;2023-02-22T08:12:35;26.65;;;14.98;;
57635;SDS011;43465;50.728;4.160;2023-02-22T08:15:02;19.85;;;14.65;;
57635;SDS011;43465;50.728;4.160;2023-02-22T08:17:28;23.35;;;14.75;;
57635;SDS011;43465;50.728;4.160;2023-02-22T08:19:54;24.23;;;15.35;;
57635;SDS011;43465;50.728;4.160;2023-02-22T08:22:19;28.90;;;16.60;;
57635;SDS011;43465;50.728;4.160;2023-02-22T08:24:45;28.55;;;17.35;;
57635;SDS011;43465;50.728;4.160;2023-02-22T08:27:11;23.90;;;16.42;;
57635;SDS011;43465;50.728;4.160;2023-02-22T08:29:36;25.08;;;15.32;;
57635;SDS011;43465;50.728;4.160;2023-02-22T08:32:02;25.75;;;15.00;;
57635;SDS011;43465;50.728;4.160;2023-02-22T08:34:28;22.05;;;14.77;;
57635;SDS011;43465;50.728;4.160;2023-02-22T08:36:54;23.17;;;14.90;;
57635;SDS011;43465;50.728;4.160;2023-02-22T08:39:20;24.65;;;14.52;;
57635;SDS011;43465;50.728;4.160;2023-02-22T08:41:46;26.42;;;14.65;;
57635;SDS011;43465;50.728;4.160;2023-02-22T08:44:12;19.67;;;14.15;;
57635;SDS011;43465;50.728;4.160;2023-02-22T08:46:37;23.45;;;14.07;;
57635;SDS011;43465;50.728;4.160;2023-02-22T08:49:03;19.42;;;13.25;;
57635;SDS011;43465;50.728;4.160;2023-02-22T08:51:33;20.10;;;14.05;;
57635;SDS011;43465;50.728;4.160;2023-02-22T08:54:00;21.10;;;13.52;;
57635;SDS011;43465;50.728;4.160;2023-02-22T08:56:27;20.63;;;13.00;;
57635;SDS011;43465;50.728;4.160;2023-02-22T08:58:54;22.13;;;13.88;;
57635;SDS011;43465;50.728;4.160;2023-02-22T09:01:21;23.13;;;13.23;;
57635;SDS011;43465;50.728;4.160;2023-02-22T09:03:48;23.38;;;13.95;;
57635;SDS011;43465;50.728;4.160;2023-02-22T09:06:15;22.55;;;13.27;;
57635;SDS011;43465;50.728;4.160;2023-02-22T09:08:44;23.08;;;13.95;;
57635;SDS011;43465;50.728;4.160;2023-02-22T09:11:09;19.58;;;13.50;;
57635;SDS011;43465;50.728;4.160;2023-02-22T09:13:35;22.90;;;13.88;;
57635;SDS011;43465;50.728;4.160;2023-02-22T09:16:00;19.23;;;14.15;;
57635;SDS011;43465;50.728;4.160;2023-02-22T09:18:26;20.42;;;14.45;;
57635;SDS011;43465;50.728;4.160;2023-02-22T09:20:52;22.52;;;14.30;;
57635;SDS011;43465;50.728;4.160;2023-02-22T09:23:18;23.58;;;14.77;;
57635;SDS011;43465;50.728;4.160;2023-02-22T09:25:45;21.75;;;14.30;;
57635;SDS011;43465;50.728;4.160;2023-02-22T09:28:15;24.25;;;15.00;;
57635;SDS011;43465;50.728;4.160;2023-02-22T09:30:41;20.02;;;14.57;;
57635;SDS011;43465;50.728;4.160;2023-02-22T09:33:07;18.45;;;13.75;;
57635;SDS011;43465;50.728;4.160;2023-02-22T09:35:35;24.25;;;15.98;;
57635;SDS011;43465;50.728;4.160;2023-02-22T09:38:06;19.33;;;14.55;;
57635;SDS011;43465;50.728;4.160;2023-02-22T09:40:33;23.10;;;14.73;;
57635;SDS011;43465;50.728;4.160;2023-02-22T09:45:36;22.02;;;15.32;;
57635;SDS011;43465;50.728;4.160;2023-02-22T09:48:12;23.17;;;14.60;;
57635;SDS011;43465;50.728;4.160;2023-02-22T09:50:40;21.98;;;15.38;;
57635;SDS011;43465;50.728;4.160;2023-02-22T09:53:55;25.00;;;15.63;;
57635;SDS011;43465;50.728;4.160;2023-02-22T09:56:06;26.55;;;15.45;;
57635;SDS011;43465;50.728;4.160;2023-02-22T09:58:37;28.42;;;15.18;;
57635;SDS011;43465;50.728;4.160;2023-02-22T10:03:46;20.97;;;15.60;;
57635;SDS011;43465;50.728;4.160;2023-02-22T10:06:18;21.25;;;15.57;;
57635;SDS011;43465;50.728;4.160;2023-02-22T10:08:50;24.98;;;16.38;;
57635;SDS011;43465;50.728;4.160;2023-02-22T10:11:27;22.05;;;15.70;;
57635;SDS011;43465;50.728;4.160;2023-02-22T10:17:16;24.40;;;16.48;;
57635;SDS011;43465;50.728;4.160;2023-02-22T10:19:50;22.77;;;16.88;;
57635;SDS011;43465;50.728;4.160;2023-02-22T10:25:42;22.40;;;17.88;;
57635;SDS011;43465;50.728;4.160;2023-02-22T10:31:38;29.15;;;17.85;;
57635;SDS011;43465;50.728;4.160;2023-02-22T10:34:23;29.92;;;17.75;;
57635;SDS011;43465;50.728;4.160;2023-02-22T10:36:54;30.88;;;17.98;;
57635;SDS011;43465;50.728;4.160;2023-02-22T10:39:30;28.63;;;18.85;;
57635;SDS011;43465;50.728;4.160;2023-02-22T10:42:00;28.85;;;18.33;;
57635;SDS011;43465;50.728;4.160;2023-02-22T10:44:32;30.92;;;18.45;;
57635;SDS011;43465;50.728;4.160;2023-02-22T10:47:09;30.90;;;19.15;;
57635;SDS011;43465;50.728;4.160;2023-02-22T10:49:42;25.48;;;18.90;;
57635;SDS011;43465;50.728;4.160;2023-02-22T10:54:51;34.22;;;18.55;;
57635;SDS011;43465;50.728;4.160;2023-02-22T10:57:22;27.90;;;19.35;;
57635;SDS011;43465;50.728;4.160;2023-02-22T10:59:50;34.70;;;19.67;;
57635;SDS011;43465;50.728;4.160;2023-02-22T11:02:20;31.10;;;20.38;;
57635;SDS011;43465;50.728;4.160;2023-02-22T11:04:56;33.65;;;20.73;;
57635;SDS011;43465;50.728;4.160;2023-02-22T11:07:25;30.58;;;20.73;;
57635;SDS011;43465;50.728;4.160;2023-02-22T11:09:57;33.72;;;20.77;;
57635;SDS011;43465;50.728;4.160;2023-02-22T11:15:43;30.77;;;20.50;;
57635;SDS011;43465;50.728;4.160;2023-02-22T11:17:44;33.15;;;22.27;;
57635;SDS011;43465;50.728;4.160;2023-02-22T11:20:45;29.58;;;23.20;;
57635;SDS011;43465;50.728;4.160;2023-02-22T11:23:04;31.30;;;22.95;;
57635;SDS011;43465;50.728;4.160;2023-02-22T11:25:36;30.80;;;23.58;;
57635;SDS011;43465;50.728;4.160;2023-02-22T11:28:08;32.45;;;24.38;;
57635;SDS011;43465;50.728;4.160;2023-02-22T11:30:57;32.35;;;24.58;;
57635;SDS011;43465;50.728;4.160;2023-02-22T11:33:33;34.75;;;26.48;;
57635;SDS011;43465;50.728;4.160;2023-02-22T11:36:00;31.75;;;24.35;;
57635;SDS011;43465;50.728;4.160;2023-02-22T11:38:30;32.97;;;25.23;;
57635;SDS011;43465;50.728;4.160;2023-02-22T11:41:05;30.05;;;25.27;;
57635;SDS011;43465;50.728;4.160;2023-02-22T11:43:38;38.22;;;26.90;;
57635;SDS011;43465;50.728;4.160;2023-02-22T11:46:08;38.45;;;25.52;;
57635;SDS011;43465;50.728;4.160;2023-02-22T11:48:36;34.03;;;24.23;;
57635;SDS011;43465;50.728;4.160;2023-02-22T11:56:44;33.53;;;25.25;;
57635;SDS011;43465;50.728;4.160;2023-02-22T12:04:59;39.53;;;27.60;;
57635;SDS011;43465;50.728;4.160;2023-02-22T12:07:44;37.25;;;27.83;;
57635;SDS011;43465;50.728;4.160;2023-02-22T12:16:45;36.15;;;27.45;;
57635;SDS011;43465;50.728;4.160;2023-02-22T12:19:49;36.72;;;28.08;;
57635;SDS011;43465;50.728;4.160;2023-02-22T12:22:26;37.50;;;28.42;;
57635;SDS011;43465;50.728;4.160;2023-02-22T12:25:06;36.28;;;28.13;;
57635;SDS011;43465;50.728;4.160;2023-02-22T12:27:40;35.05;;;28.33;;
57635;SDS011;43465;50.728;4.160;2023-02-22T12:30:14;34.97;;;26.65;;
57635;SDS011;43465;50.728;4.160;2023-02-22T12:32:49;35.15;;;27.33;;
57635;SDS011;43465;50.728;4.160;2023-02-22T12:35:22;37.40;;;29.05;;
57635;SDS011;43465;50.728;4.160;2023-02-22T12:37:55;38.38;;;29.10;;
57635;SDS011;43465;50.728;4.160;2023-02-22T12:40:37;41.10;;;29.55;;
57635;SDS011;43465;50.728;4.160;2023-02-22T12:43:12;38.80;;;29.95;;
57635;SDS011;43465;50.728;4.160;2023-02-22T12:45:56;45.28;;;30.88;;
57635;SDS011;43465;50.728;4.160;2023-02-22T12:51:14;39.17;;;29.95;;
57635;SDS011;43465;50.728;4.160;2023-02-22T13:04:34;45.03;;;32.33;;
57635;SDS011;43465;50.728;4.160;2023-02-22T13:07:16;45.05;;;32.78;;
57635;SDS011;43465;50.728;4.160;2023-02-22T13:24:07;48.45;;;37.20;;
57635;SDS011;43465;50.728;4.160;2023-02-22T13:26:52;50.50;;;38.00;;
57635;SDS011;43465;50.728;4.160;2023-02-22T13:29:24;51.88;;;38.40;;
57635;SDS011;43465;50.728;4.160;2023-02-22T13:34:35;51.50;;;38.42;;
57635;SDS011;43465;50.728;4.160;2023-02-22T13:40:24;50.90;;;38.97;;
57635;SDS011;43465;50.728;4.160;2023-02-22T13:51:57;55.65;;;39.97;;
57635;SDS011;43465;50.728;4.160;2023-02-22T13:54:41;53.25;;;40.55;;
57635;SDS011;43465;50.728;4.160;2023-02-22T13:57:46;51.33;;;40.72;;
57635;SDS011;43465;50.728;4.160;2023-02-22T14:13:11;56.53;;;41.50;;
57635;SDS011;43465;50.728;4.160;2023-02-22T14:16:15;54.05;;;40.40;;
57635;SDS011;43465;50.728;4.160;2023-02-22T14:18:29;57.08;;;41.50;;
57635;SDS011;43465;50.728;4.160;2023-02-22T14:21:06;58.10;;;42.03;;
57635;SDS011;43465;50.728;4.160;2023-02-22T14:23:38;62.22;;;41.97;;
57635;SDS011;43465;50.728;4.160;2023-02-22T14:28:55;55.95;;;40.95;;
57635;SDS011;43465;50.728;4.160;2023-02-22T14:31:27;57.83;;;42.10;;
57635;SDS011;43465;50.728;4.160;2023-02-22T14:36:27;57.47;;;42.05;;
57635;SDS011;43465;50.728;4.160;2023-02-22T14:39:19;62.53;;;43.05;;
57635;SDS011;43465;50.728;4.160;2023-02-22T14:41:55;64.82;;;46.22;;
57635;SDS011;43465;50.728;4.160;2023-02-22T14:44:26;67.18;;;44.33;;
57635;SDS011;43465;50.728;4.160;2023-02-22T14:47:20;57.50;;;42.35;;
57635;SDS011;43465;50.728;4.160;2023-02-22T14:49:54;63.15;;;43.75;;
57635;SDS011;43465;50.728;4.160;2023-02-22T14:52:27;61.28;;;42.63;;
57635;SDS011;43465;50.728;4.160;2023-02-22T14:57:44;67.13;;;44.92;;
57635;SDS011;43465;50.728;4.160;2023-02-22T15:02:47;72.28;;;44.20;;
57635;SDS011;43465;50.728;4.160;2023-02-22T15:05:17;69.95;;;44.85;;
57635;SDS011;43465;50.728;4.160;2023-02-22T15:07:55;70.68;;;44.63;;
57635;SDS011;43465;50.728;4.160;2023-02-22T15:10:29;68.95;;;43.35;;
57635;SDS011;43465;50.728;4.160;2023-02-22T15:13:03;70.47;;;44.80;;
57635;SDS011;43465;50.728;4.160;2023-02-22T15:15:47;71.22;;;44.00;;
57635;SDS011;43465;50.728;4.160;2023-02-22T15:18:37;70.10;;;43.50;;
57635;SDS011;43465;50.728;4.160;2023-02-22T15:21:07;76.03;;;45.47;;
57635;SDS011;43465;50.728;4.160;2023-02-22T15:23:50;74.82;;;44.88;;
57635;SDS011;43465;50.728;4.160;2023-02-22T15:29:24;67.70;;;44.50;;
57635;SDS011;43465;50.728;4.160;2023-02-22T15:31:50;70.53;;;43.90;;
57635;SDS011;43465;50.728;4.160;2023-02-22T15:34:19;70.78;;;44.47;;
57635;SDS011;43465;50.728;4.160;2023-02-22T15:36:49;68.63;;;44.58;;
57635;SDS011;43465;50.728;4.160;2023-02-22T15:39:23;70.55;;;43.90;;
57635;SDS011;43465;50.728;4.160;2023-02-22T15:42:06;72.85;;;44.17;;
57635;SDS011;43465;50.728;4.160;2023-02-22T15:44:41;72.70;;;44.45;;
57635;SDS011;43465;50.728;4.160;2023-02-22T15:47:26;69.82;;;44.28;;
57635;SDS011;43465;50.728;4.160;2023-02-22T15:50:12;74.35;;;45.33;;
57635;SDS011;43465;50.728;4.160;2023-02-22T15:55:17;79.07;;;47.08;;
57635;SDS011;43465;50.728;4.160;2023-02-22T15:57:45;72.63;;;45.83;;
57635;SDS011;43465;50.728;4.160;2023-02-22T16:00:22;80.32;;;46.47;;
57635;SDS011;43465;50.728;4.160;2023-02-22T16:02:57;82.43;;;47.35;;
57635;SDS011;43465;50.728;4.160;2023-02-22T16:05:27;85.82;;;48.70;;
57635;SDS011;43465;50.728;4.160;2023-02-22T16:08:02;78.05;;;46.70;;
57635;SDS011;43465;50.728;4.160;2023-02-22T16:10:30;84.90;;;49.00;;
57635;SDS011;43465;50.728;4.160;2023-02-22T16:13:34;88.28;;;49.88;;
57635;SDS011;43465;50.728;4.160;2023-02-22T16:18:27;91.00;;;50.70;;
57635;SDS011;43465;50.728;4.160;2023-02-22T16:21:01;87.32;;;49.72;;
57635;SDS011;43465;50.728;4.160;2023-02-22T16:23:42;90.82;;;52.08;;
57635;SDS011;43465;50.728;4.160;2023-02-22T16:26:18;91.38;;;52.35;;
57635;SDS011;43465;50.728;4.160;2023-02-22T16:28:51;89.97;;;52.13;;
57635;SDS011;43465;50.728;4.160;2023-02-22T16:31:20;94.30;;;52.30;;
57635;SDS011;43465;50.728;4.160;2023-02-22T16:33:48;85.63;;;50.60;;
57635;SDS011;43465;50.728;4.160;2023-02-22T16:36:19;95.03;;;52.53;;
57635;SDS011;43465;50.728;4.160;2023-02-22T16:39:00;87.35;;;50.20;;
57635;SDS011;43465;50.728;4.160;2023-02-22T16:41:25;88.97;;;51.42;;
57635;SDS011;43465;50.728;4.160;2023-02-22T16:43:52;90.57;;;51.45;;
57635;SDS011;43465;50.728;4.160;2023-02-22T16:46:18;88.65;;;51.88;;
57635;SDS011;43465;50.728;4.160;2023-02-22T16:48:44;95.07;;;51.72;;
57635;SDS011;43465;50.728;4.160;2023-02-22T16:51:23;87.95;;;51.42;;
57635;SDS011;43465;50.728;4.160;2023-02-22T16:53:52;93.88;;;51.85;;
57635;SDS011;43465;50.728;4.160;2023-02-22T16:56:19;91.10;;;50.65;;
57635;SDS011;43465;50.728;4.160;2023-02-22T16:58:49;89.88;;;49.88;;
57635;SDS011;43465;50.728;4.160;2023-02-22T17:01:17;83.95;;;50.00;;
57635;SDS011;43465;50.728;4.160;2023-02-22T17:03:43;92.22;;;52.13;;
57635;SDS011;43465;50.728;4.160;2023-02-22T17:06:09;87.75;;;49.90;;
57635;SDS011;43465;50.728;4.160;2023-02-22T17:08:41;89.13;;;48.78;;
57635;SDS011;43465;50.728;4.160;2023-02-22T17:11:07;85.30;;;49.83;;